PILOTS ONLINE: 466    ATC ONLINE: 94

Location

City Cherry Point
Country  United States
Latitude 34° 54' 3" N
Longitude 76° 52' 50" W
Elevation 29 ft
Type Medium Airport

Weather

METAR
2014/07/10 19:54
KNKT 101954Z 19011G19KT 10SM CLR 29/22 A3006 RMK AO2 SLP175 T02940217 PNO $ 
TAF
2014/07/10 15:46
TAF 
      AMD KNKT 1015/1115 19010KT 9999 VCTS BKN020 BKN030CB QNH3008INS 
      TEMPO 1015/1021 18020G30KT 1600 TSRA BKN020 BKN030CB OVC040 
     FM102200 19008KT 8000 SHRA BKN030 BKN050 QNH3007INS 
     FM110600 18010KT 9999 SCT030 SCT050 QNH3009INS 
     FM111000 21008KT 8000 SHRA BKN030 BKN050 QNH3006INS T31/1017Z T24/1110Z 
      AMD 1535

Runways

05L/23R 7553 ft / 200 ft
05R/23L 8188 ft / 196 ft
14L/32R 8984 ft / 200 ft
14R/32L 8399 ft / 200 ft

Outbound flights

Inbound flights


Spotted incorrect airport information? Please login with your VATSIM ID.